Terminal Aerodrome Forecast
Issued by NWS

Home | Current Version | Previous Version | Text Only | Print | Product List | Glossary On
Versions: 1 2 3 4 5 6 7 8 9 10 11 12 13 14 15 16 17 18 19 20 21 22 23 24 25 26 27 28 29 30
000
FTUS43 KLSX 171907 AAA
TAFCPS
TAF AMD
KCPS 171907Z 1719/1818 08011KT P6SM VCTS BKN050CB
     FM172300 04006KT P6SM BKN180
     FM181100 05006KT P6SM VCTS BKN025CB
     FM181300 05007KT P6SM VCTS BKN015CB
     FM181500 06008KT P6SM VCTS BKN025CB=

USA.gov is the U.S. government's official web portal to all federal, state and local government web resources and services.